createdAt,value
2018-09-09T00:02:06.214Z,14.70
2018-09-09T00:04:34.469Z,14.80
2018-09-09T00:07:03.044Z,14.70
2018-09-09T00:09:37.767Z,14.70
2018-09-09T00:12:05.985Z,14.70
2018-09-09T00:14:37.360Z,14.60
2018-09-09T00:17:05.610Z,14.60
2018-09-09T00:19:33.825Z,14.70
2018-09-09T00:22:02.407Z,14.60
2018-09-09T00:24:30.674Z,14.50
2018-09-09T00:26:58.873Z,14.50
2018-09-09T00:29:27.101Z,14.50
2018-09-09T00:31:55.325Z,14.40
2018-09-09T00:34:24.014Z,14.40
2018-09-09T00:36:52.758Z,14.40
2018-09-09T00:39:21.266Z,14.40
2018-09-09T00:41:49.505Z,14.40
2018-09-09T00:44:17.745Z,14.30
2018-09-09T00:46:46.023Z,14.30
2018-09-09T00:49:20.001Z,14.30
2018-09-09T00:51:53.649Z,14.30
2018-09-09T00:54:22.299Z,14.30
2018-09-09T00:56:50.538Z,14.30
2018-09-09T00:59:19.675Z,14.20
2018-09-09T01:01:48.467Z,14.20
2018-09-09T01:04:16.762Z,14.20
2018-09-09T01:06:45.314Z,14.20
2018-09-09T01:09:14.311Z,14.20
2018-09-09T01:11:42.533Z,14.20
2018-09-09T01:14:10.769Z,14.20
2018-09-09T01:16:39.475Z,14.20
2018-09-09T01:19:07.736Z,14.10
2018-09-09T01:21:36.325Z,14.10
2018-09-09T01:24:05.226Z,14.10
2018-09-09T01:26:33.479Z,14.00
2018-09-09T01:29:02.154Z,14.00
2018-09-09T01:31:35.086Z,14.00
2018-09-09T01:34:03.382Z,14.00
2018-09-09T01:36:32.118Z,14.00
2018-09-09T01:39:07.724Z,13.80
2018-09-09T01:41:35.962Z,13.90
2018-09-09T01:44:04.195Z,13.80
2018-09-09T01:46:32.582Z,13.80
2018-09-09T01:49:01.155Z,13.80
2018-09-09T01:51:29.400Z,13.80
2018-09-09T01:53:57.926Z,13.80
2018-09-09T01:56:26.379Z,13.90
2018-09-09T01:58:54.882Z,13.90
2018-09-09T02:01:23.100Z,13.80
2018-09-09T02:03:51.350Z,13.90
2018-09-09T02:06:19.877Z,13.80
2018-09-09T02:08:53.457Z,13.80
2018-09-09T02:11:21.674Z,13.80
2018-09-09T02:13:49.933Z,13.60
2018-09-09T02:16:18.765Z,13.60
2018-09-09T02:18:46.986Z,13.70
2018-09-09T02:21:15.560Z,13.70
2018-09-09T02:23:43.998Z,13.70
2018-09-09T02:26:12.215Z,13.70
2018-09-09T02:28:40.971Z,13.60
2018-09-09T02:31:09.763Z,13.60
2018-09-09T02:33:37.977Z,13.70
2018-09-09T02:36:06.844Z,13.70
2018-09-09T02:38:35.697Z,13.60
2018-09-09T02:41:04.109Z,13.60
2018-09-09T02:43:32.424Z,13.60
2018-09-09T02:46:00.571Z,13.50
2018-09-09T02:48:29.214Z,13.50
2018-09-09T02:50:57.869Z,13.50
2018-09-09T02:53:26.450Z,13.50
2018-09-09T02:55:54.661Z,13.50
2018-09-09T02:58:22.881Z,13.50
2018-09-09T03:00:56.951Z,13.50
2018-09-09T03:03:25.179Z,13.40
2018-09-09T03:05:54.010Z,13.50
2018-09-09T03:08:22.228Z,13.50
2018-09-09T03:10:54.704Z,13.50
2018-09-09T03:13:22.979Z,13.50
2018-09-09T03:15:51.818Z,13.40
2018-09-09T03:18:20.038Z,13.40
2018-09-09T03:20:48.877Z,13.40
2018-09-09T03:23:17.694Z,13.40
2018-09-09T03:25:45.930Z,13.40
2018-09-09T03:28:15.142Z,13.40
2018-09-09T03:30:43.937Z,13.40
2018-09-09T03:33:12.162Z,13.30
2018-09-09T03:38:14.402Z,13.40
2018-09-09T03:40:49.848Z,13.50
2018-09-09T03:43:18.074Z,13.50
2018-09-09T03:45:46.318Z,13.60
2018-09-09T03:48:14.553Z,13.50
2018-09-09T03:50:42.769Z,13.50
2018-09-09T03:53:11.561Z,13.60
2018-09-09T03:55:39.790Z,13.60
2018-09-09T03:58:08.018Z,13.40
2018-09-09T04:00:36.301Z,13.50
2018-09-09T04:03:12.073Z,13.50
2018-09-09T04:05:40.595Z,13.40
2018-09-09T04:08:08.827Z,13.40
2018-09-09T04:10:37.102Z,13.50
2018-09-09T04:13:05.386Z,13.30
2018-09-09T04:15:34.302Z,13.40
2018-09-09T04:18:02.963Z,13.40
2018-09-09T04:20:31.789Z,13.30
2018-09-09T04:23:03.902Z,13.40
2018-09-09T04:25:32.157Z,13.30
2018-09-09T04:28:00.867Z,13.30
2018-09-09T04:30:29.084Z,13.40
2018-09-09T04:32:57.309Z,13.30
2018-09-09T04:35:25.613Z,13.30
2018-09-09T04:37:54.605Z,13.20
2018-09-09T04:40:23.002Z,13.20
2018-09-09T04:42:51.267Z,13.20
2018-09-09T04:45:19.462Z,13.20
2018-09-09T04:47:47.840Z,13.30
2018-09-09T04:50:16.441Z,13.20
2018-09-09T04:52:45.246Z,13.20
2018-09-09T04:55:13.482Z,13.10
2018-09-09T04:57:41.713Z,13.10
2018-09-09T05:00:10.097Z,13.10
2018-09-09T05:02:38.632Z,13.20
2018-09-09T05:05:11.250Z,13.10
2018-09-09T05:07:39.498Z,13.00
2018-09-09T05:10:07.722Z,13.00
2018-09-09T05:12:35.974Z,13.00
2018-09-09T05:15:05.330Z,13.10
2018-09-09T05:17:34.589Z,13.10
2018-09-09T05:20:04.109Z,13.10
2018-09-09T05:22:32.325Z,13.10
2018-09-09T05:25:01.034Z,13.00
2018-09-09T05:27:30.197Z,12.90
2018-09-09T05:29:58.477Z,12.90
2018-09-09T05:32:26.718Z,13.00
2018-09-09T05:34:55.661Z,13.10
2018-09-09T05:37:24.314Z,13.10
2018-09-09T05:39:52.734Z,13.10
2018-09-09T05:42:21.059Z,13.10
2018-09-09T05:44:49.362Z,13.10
2018-09-09T05:47:17.595Z,13.10
2018-09-09T05:49:46.390Z,13.30
2018-09-09T05:52:15.445Z,13.40
2018-09-09T05:54:43.711Z,13.50
2018-09-09T05:57:13.862Z,13.70
2018-09-09T05:59:42.101Z,13.80
2018-09-09T06:02:10.312Z,14.00
2018-09-09T06:04:38.798Z,14.20
2018-09-09T06:07:07.962Z,14.30
2018-09-09T06:09:36.502Z,14.40
2018-09-09T06:12:04.773Z,14.60
2018-09-09T06:14:36.698Z,14.90
2018-09-09T06:17:05.163Z,15.20
2018-09-09T06:19:33.389Z,15.20
2018-09-09T06:22:02.465Z,15.40
2018-09-09T06:24:31.262Z,15.40
2018-09-09T06:26:59.933Z,15.50
2018-09-09T06:29:28.657Z,15.60
2018-09-09T06:31:56.896Z,15.80
2018-09-09T06:34:25.163Z,15.70
2018-09-09T06:36:53.907Z,15.80
2018-09-09T06:39:22.786Z,15.90
2018-09-09T06:41:51.094Z,16.20
2018-09-09T06:44:19.334Z,16.40
2018-09-09T06:46:47.595Z,16.30
2018-09-09T06:49:16.439Z,16.30
2018-09-09T06:51:44.657Z,16.40
2018-09-09T06:54:13.367Z,16.60
2018-09-09T06:56:41.613Z,16.50
2018-09-09T06:59:10.690Z,16.50
2018-09-09T07:01:38.926Z,16.70
2018-09-09T07:04:07.182Z,16.70
2018-09-09T07:06:36.046Z,16.90
2018-09-09T07:09:06.030Z,17.00
2018-09-09T07:11:34.363Z,17.20
2018-09-09T07:14:02.969Z,17.30
2018-09-09T07:16:31.397Z,17.50
2018-09-09T07:19:00.134Z,17.50
2018-09-09T07:21:34.599Z,17.70
2018-09-09T07:24:04.680Z,18.10
2018-09-09T07:26:33.498Z,18.30
2018-09-09T07:29:02.116Z,18.60
2018-09-09T07:31:30.374Z,19.00
2018-09-09T07:33:58.626Z,19.60
2018-09-09T07:36:27.262Z,20.10
2018-09-09T07:38:55.489Z,20.10
2018-09-09T07:41:24.212Z,20.40
2018-09-09T07:43:52.438Z,21.00
2018-09-09T07:46:21.328Z,21.70
2018-09-09T07:48:49.558Z,21.90
2018-09-09T07:51:17.794Z,22.40
2018-09-09T07:53:46.659Z,23.20
2018-09-09T07:56:14.904Z,23.30
2018-09-09T07:58:43.138Z,23.50
2018-09-09T08:01:11.396Z,24.70
2018-09-09T08:03:39.658Z,25.90
2018-09-09T08:06:08.612Z,25.90
2018-09-09T08:08:36.844Z,25.50
2018-09-09T08:11:05.035Z,26.30
2018-09-09T08:13:33.572Z,26.50
2018-09-09T08:16:02.640Z,26.10
2018-09-09T08:18:30.885Z,26.00
2018-09-09T08:20:59.688Z,26.10
2018-09-09T08:23:28.243Z,25.90
2018-09-09T08:25:56.518Z,26.50
2018-09-09T08:28:25.450Z,26.80
2018-09-09T08:30:54.255Z,27.10
2018-09-09T08:33:22.478Z,28.00
2018-09-09T08:35:51.406Z,28.30
2018-09-09T08:38:20.070Z,28.20
2018-09-09T08:40:48.766Z,28.20
2018-09-09T08:43:17.015Z,28.40
2018-09-09T08:45:45.242Z,28.30
2018-09-09T08:48:13.487Z,28.50
2018-09-09T08:50:41.739Z,28.50
2018-09-09T08:53:10.185Z,28.20
2018-09-09T08:55:38.417Z,28.10
2018-09-09T08:58:06.627Z,28.80
2018-09-09T09:00:34.877Z,29.40
2018-09-09T09:03:03.143Z,29.00
2018-09-09T09:05:32.019Z,29.10
2018-09-09T09:08:00.404Z,29.90
2018-09-09T09:10:28.489Z,29.90
2018-09-09T09:12:57.119Z,30.00
2018-09-09T09:15:25.905Z,29.70
2018-09-09T09:18:00.846Z,29.90
2018-09-09T09:20:29.331Z,30.00
2018-09-09T09:23:09.618Z,29.70
2018-09-09T09:25:42.074Z,28.80
2018-09-09T09:28:10.481Z,28.70
2018-09-09T09:30:38.723Z,29.40
2018-09-09T09:33:06.963Z,30.10
2018-09-09T09:38:14.733Z,30.40
2018-09-09T09:40:43.174Z,30.30
2018-09-09T09:43:12.197Z,30.90
2018-09-09T09:45:40.477Z,30.70
2018-09-09T09:48:08.733Z,31.40
2018-09-09T09:50:37.166Z,31.90
2018-09-09T09:53:06.103Z,31.40
2018-09-09T09:55:34.434Z,31.30
2018-09-09T09:58:02.618Z,30.90
2018-09-09T10:00:36.114Z,31.90
2018-09-09T10:03:04.813Z,31.70
2018-09-09T10:05:34.159Z,31.30
2018-09-09T10:10:39.050Z,31.80
2018-09-09T10:13:07.638Z,31.70
2018-09-09T10:15:36.162Z,31.90
2018-09-09T10:18:04.446Z,32.00
2018-09-09T10:20:33.213Z,32.00
2018-09-09T10:23:03.809Z,32.10
2018-09-09T10:25:32.106Z,31.50
2018-09-09T10:28:00.672Z,32.00
2018-09-09T10:30:28.968Z,32.10
2018-09-09T10:32:57.211Z,32.00
2018-09-09T10:35:25.832Z,31.70
2018-09-09T10:37:54.566Z,31.50
2018-09-09T10:40:23.243Z,31.40
2018-09-09T10:42:51.950Z,31.20
2018-09-09T10:48:05.829Z,32.00
2018-09-09T10:50:34.083Z,32.00
2018-09-09T10:53:03.092Z,31.90
2018-09-09T10:55:31.282Z,32.40
2018-09-09T10:57:59.986Z,31.30
2018-09-09T11:00:28.210Z,30.70
2018-09-09T11:02:56.448Z,30.70
2018-09-09T11:05:25.330Z,31.10
2018-09-09T11:07:53.597Z,30.40
2018-09-09T11:10:21.822Z,30.00
2018-09-09T11:12:50.085Z,28.90
2018-09-09T11:15:18.788Z,28.10
2018-09-09T11:17:47.025Z,27.60
2018-09-09T11:20:15.939Z,27.70
2018-09-09T11:22:44.226Z,28.20
2018-09-09T11:25:12.688Z,28.20
2018-09-09T11:27:41.298Z,28.30
2018-09-09T11:30:10.173Z,28.00
2018-09-09T11:32:38.451Z,27.50
2018-09-09T11:35:06.958Z,26.90
2018-09-09T11:37:35.425Z,27.20
2018-09-09T11:40:03.990Z,27.20
2018-09-09T11:42:32.783Z,27.10
2018-09-09T11:45:01.024Z,26.80
2018-09-09T11:47:29.806Z,26.70
2018-09-09T11:49:58.085Z,26.80
2018-09-09T11:52:26.966Z,26.80
2018-09-09T11:54:55.875Z,26.40
2018-09-09T11:57:25.069Z,26.40
2018-09-09T11:59:53.310Z,26.30
2018-09-09T12:02:21.551Z,26.30
2018-09-09T12:04:50.078Z,26.80
2018-09-09T12:07:18.772Z,26.90
2018-09-09T12:09:46.975Z,27.20
2018-09-09T12:14:53.842Z,26.80
2018-09-09T12:17:22.057Z,26.90
2018-09-09T12:19:51.657Z,26.90
2018-09-09T12:22:19.922Z,26.70
2018-09-09T12:24:49.032Z,26.80
2018-09-09T12:27:17.537Z,26.90
2018-09-09T12:29:45.988Z,27.20
2018-09-09T12:32:14.288Z,27.50
2018-09-09T12:34:52.423Z,27.30
2018-09-09T12:37:20.998Z,27.00
2018-09-09T12:39:49.564Z,27.00
2018-09-09T12:42:18.207Z,27.10
2018-09-09T12:44:51.962Z,27.00
2018-09-09T12:47:25.591Z,27.20
2018-09-09T12:49:54.337Z,27.10
2018-09-09T12:52:23.009Z,27.30
2018-09-09T12:54:51.258Z,27.20
2018-09-09T12:57:19.525Z,27.20
2018-09-09T12:59:51.890Z,27.10
2018-09-09T13:02:20.132Z,26.90
2018-09-09T13:04:48.605Z,26.80
2018-09-09T13:07:17.253Z,26.80
2018-09-09T13:09:45.490Z,27.00
2018-09-09T13:12:13.738Z,27.30
2018-09-09T13:14:42.487Z,27.50
2018-09-09T13:17:10.718Z,27.50
2018-09-09T13:19:38.962Z,27.60
2018-09-09T13:22:07.408Z,28.30
2018-09-09T13:24:36.457Z,29.10
2018-09-09T13:27:05.578Z,29.80
2018-09-09T13:29:33.823Z,30.70
2018-09-09T13:32:02.061Z,30.50
2018-09-09T13:34:30.374Z,29.70
2018-09-09T13:36:59.339Z,29.30
2018-09-09T13:39:28.093Z,28.70
2018-09-09T13:41:56.581Z,28.20
2018-09-09T13:44:24.825Z,27.80
2018-09-09T13:46:53.205Z,27.30
2018-09-09T13:49:22.146Z,27.00
2018-09-09T13:51:50.395Z,26.50
2018-09-09T13:54:19.047Z,26.10
2018-09-09T13:56:47.299Z,25.80
2018-09-09T13:59:15.549Z,26.00
2018-09-09T14:01:43.926Z,26.00
2018-09-09T14:04:12.631Z,25.90
2018-09-09T14:06:41.465Z,25.90
2018-09-09T14:09:10.110Z,26.00
2018-09-09T14:11:38.423Z,25.70
2018-09-09T14:14:06.939Z,25.40
2018-09-09T14:16:35.605Z,25.50
2018-09-09T14:19:04.378Z,25.60
2018-09-09T14:21:33.032Z,25.80
2018-09-09T14:24:01.621Z,25.50
2018-09-09T14:26:29.869Z,25.40
2018-09-09T14:28:58.487Z,25.40
2018-09-09T14:31:26.714Z,25.40
2018-09-09T14:33:54.970Z,25.50
2018-09-09T14:36:23.963Z,25.50
2018-09-09T14:38:52.254Z,25.40
2018-09-09T14:41:20.856Z,25.50
2018-09-09T14:43:49.150Z,25.40
2018-09-09T14:46:17.430Z,25.40
2018-09-09T14:48:46.114Z,25.10
2018-09-09T14:51:14.367Z,25.10
2018-09-09T14:53:42.906Z,25.10
2018-09-09T14:56:11.157Z,25.10
2018-09-09T14:58:39.513Z,25.00
2018-09-09T15:01:07.934Z,25.00
2018-09-09T15:03:36.470Z,24.90
2018-09-09T15:06:04.955Z,24.80
2018-09-09T15:08:33.208Z,24.80
2018-09-09T15:11:01.513Z,24.80
2018-09-09T15:13:29.803Z,24.80
2018-09-09T15:16:01.869Z,24.70
2018-09-09T15:18:30.106Z,24.70
2018-09-09T15:20:58.421Z,24.70
2018-09-09T15:23:27.129Z,24.70
2018-09-09T15:25:55.418Z,24.60
2018-09-09T15:28:24.456Z,24.50
2018-09-09T15:30:53.185Z,24.40
2018-09-09T15:33:21.455Z,24.40
2018-09-09T15:35:50.342Z,24.40
2018-09-09T15:38:18.590Z,24.20
2018-09-09T15:40:47.325Z,24.20
2018-09-09T15:43:15.778Z,24.20
2018-09-09T15:45:44.038Z,24.00
2018-09-09T15:48:12.341Z,23.80
2018-09-09T15:50:41.083Z,23.60
2018-09-09T15:53:09.691Z,23.50
2018-09-09T15:55:38.644Z,23.50
2018-09-09T15:58:07.235Z,23.50
2018-09-09T16:00:36.146Z,23.50
2018-09-09T16:03:04.497Z,23.30
2018-09-09T16:05:33.058Z,23.30
2018-09-09T16:08:01.337Z,23.20
2018-09-09T16:11:54.908Z,23.20
2018-09-09T16:14:23.639Z,23.10
2018-09-09T16:16:52.262Z,22.90
2018-09-09T16:19:20.630Z,22.90
2018-09-09T16:21:48.881Z,22.80
2018-09-09T16:24:17.886Z,22.70
2018-09-09T16:26:49.239Z,22.60
2018-09-09T16:29:17.498Z,22.60
2018-09-09T16:31:45.752Z,22.40
2018-09-09T16:34:14.050Z,22.40
2018-09-09T16:36:42.610Z,22.30
2018-09-09T16:39:11.195Z,22.30
2018-09-09T16:41:40.117Z,22.30
2018-09-09T16:44:08.377Z,22.30
2018-09-09T16:46:36.768Z,22.20
2018-09-09T16:49:05.399Z,22.20
2018-09-09T16:51:34.230Z,22.20
2018-09-09T16:54:08.554Z,22.20
2018-09-09T16:56:37.422Z,22.10
2018-09-09T16:59:05.994Z,22.10
2018-09-09T17:01:34.593Z,22.20
2018-09-09T17:04:03.044Z,22.20
2018-09-09T17:06:31.550Z,22.20
2018-09-09T17:08:59.765Z,22.10
2018-09-09T17:11:28.307Z,22.10
2018-09-09T17:13:56.598Z,22.10
2018-09-09T17:16:25.307Z,21.90
2018-09-09T17:18:53.678Z,21.90
2018-09-09T17:21:22.025Z,21.90
2018-09-09T17:23:50.285Z,21.90
2018-09-09T17:26:18.530Z,21.90
2018-09-09T17:28:47.339Z,21.80
2018-09-09T17:31:15.661Z,21.80
2018-09-09T17:33:43.897Z,21.70
2018-09-09T17:36:12.766Z,21.70
2018-09-09T17:38:40.985Z,21.60
2018-09-09T17:41:09.522Z,21.60
2018-09-09T17:43:38.238Z,21.50
2018-09-09T17:46:06.828Z,21.50
2018-09-09T17:48:37.433Z,21.40
2018-09-09T17:51:05.684Z,21.30
2018-09-09T17:53:34.809Z,21.30
2018-09-09T17:56:07.036Z,21.20
2018-09-09T17:58:35.256Z,21.20
2018-09-09T18:01:04.519Z,21.10
2018-09-09T18:03:32.740Z,21.10
2018-09-09T18:06:01.492Z,21.00
2018-09-09T18:08:29.728Z,20.90
2018-09-09T18:10:58.027Z,20.90
2018-09-09T18:13:26.242Z,20.80
2018-09-09T18:15:54.837Z,20.70
2018-09-09T18:18:23.090Z,20.70
2018-09-09T18:20:51.433Z,20.60
2018-09-09T18:23:19.706Z,20.50
2018-09-09T18:25:47.919Z,20.50
2018-09-09T18:28:16.521Z,20.40
2018-09-09T18:30:44.759Z,20.40
2018-09-09T18:33:13.237Z,20.30
2018-09-09T18:35:47.881Z,20.20
2018-09-09T18:38:16.131Z,20.20
2018-09-09T18:40:44.771Z,20.10
2018-09-09T18:43:13.550Z,20.10
2018-09-09T18:45:41.786Z,20.00
2018-09-09T18:48:10.129Z,20.00
2018-09-09T18:50:38.861Z,19.90
2018-09-09T18:53:07.645Z,19.90
2018-09-09T18:55:36.366Z,19.90
2018-09-09T19:00:34.804Z,19.90
2018-09-09T19:03:03.089Z,19.80
2018-09-09T19:05:31.862Z,19.80
2018-09-09T19:08:00.131Z,19.70
2018-09-09T19:17:31.878Z,19.60
2018-09-09T19:20:00.102Z,19.50
2018-09-09T19:22:28.345Z,19.50
2018-09-09T19:24:56.618Z,19.40
2018-09-09T19:27:25.165Z,19.40
2018-09-09T19:29:53.394Z,19.40
2018-09-09T19:32:34.981Z,19.30
2018-09-09T19:35:04.123Z,19.30
2018-09-09T19:37:32.746Z,19.20
2018-09-09T19:40:01.564Z,19.20
2018-09-09T19:42:33.478Z,19.10
2018-09-09T19:45:02.223Z,19.10
2018-09-09T19:47:30.926Z,19.10
2018-09-09T19:49:59.533Z,19.00
2018-09-09T19:52:28.364Z,19.00
2018-09-09T19:54:57.251Z,18.90
2018-09-09T19:57:25.499Z,18.90
2018-09-09T19:59:53.803Z,18.90
2018-09-09T20:02:22.057Z,18.80
2018-09-09T20:04:50.451Z,18.80
2018-09-09T20:07:18.757Z,18.80
2018-09-09T20:09:47.007Z,18.70
2018-09-09T20:12:15.283Z,18.60
2018-09-09T20:14:44.121Z,18.50
2018-09-09T20:17:12.853Z,18.50
2018-09-09T20:19:41.098Z,18.50
2018-09-09T20:22:11.378Z,18.40
2018-09-09T20:24:39.701Z,18.50
2018-09-09T20:27:08.531Z,18.40
2018-09-09T20:29:36.800Z,18.50
2018-09-09T20:32:05.437Z,18.30
2018-09-09T20:34:33.698Z,18.20
2018-09-09T20:37:02.430Z,18.20
2018-09-09T20:39:31.487Z,18.20
2018-09-09T20:42:00.344Z,18.20
2018-09-09T20:44:28.614Z,18.20
2018-09-09T20:46:56.850Z,18.10
2018-09-09T20:49:25.423Z,18.10
2018-09-09T20:51:53.666Z,18.10
2018-09-09T20:54:22.386Z,18.00
2018-09-09T20:56:50.649Z,17.80
2018-09-09T20:59:18.865Z,17.90
2018-09-09T21:01:47.125Z,17.90
2018-09-09T21:04:15.334Z,17.80
2018-09-09T21:06:44.246Z,17.90
2018-09-09T21:09:13.326Z,17.90
2018-09-09T21:11:41.806Z,17.80
2018-09-09T21:14:10.552Z,17.80
2018-09-09T21:16:39.008Z,17.80
2018-09-09T21:19:07.244Z,17.70
2018-09-09T21:21:35.645Z,17.60
2018-09-09T21:24:03.979Z,17.60
2018-09-09T21:26:32.194Z,17.60
2018-09-09T21:29:00.600Z,17.60
2018-09-09T21:31:29.433Z,17.60
2018-09-09T21:33:57.674Z,17.60
2018-09-09T21:36:26.323Z,17.50
2018-09-09T21:38:54.570Z,17.50
2018-09-09T21:41:23.245Z,17.50
2018-09-09T21:43:51.467Z,17.40
2018-09-09T21:46:19.697Z,17.30
2018-09-09T21:48:48.310Z,17.20
2018-09-09T21:51:16.566Z,17.20
2018-09-09T21:53:45.135Z,17.20
2018-09-09T21:56:13.766Z,17.20
2018-09-09T21:58:42.557Z,17.10
2018-09-09T22:01:16.286Z,17.10
2018-09-09T22:03:44.540Z,17.00
2018-09-09T22:06:13.317Z,17.00
2018-09-09T22:08:41.590Z,17.00
2018-09-09T22:11:10.040Z,17.00
2018-09-09T22:13:38.264Z,16.90
2018-09-09T22:16:07.230Z,16.90
2018-09-09T22:18:35.477Z,16.80
2018-09-09T22:21:03.754Z,16.80
2018-09-09T22:23:32.044Z,16.80
2018-09-09T22:26:00.278Z,16.70
2018-09-09T22:28:28.884Z,16.80
2018-09-09T22:30:57.171Z,16.70
2018-09-09T22:33:25.500Z,16.70
2018-09-09T22:35:53.993Z,16.60
2018-09-09T22:38:22.353Z,16.50
2018-09-09T22:40:51.325Z,16.50
2018-09-09T22:43:21.501Z,16.60
2018-09-09T22:45:55.274Z,16.50
2018-09-09T22:48:23.537Z,16.50
2018-09-09T22:50:52.118Z,16.40
2018-09-09T22:53:20.634Z,16.30
2018-09-09T22:55:48.937Z,16.30
2018-09-09T22:58:17.165Z,16.30
2018-09-09T23:00:45.457Z,16.30
2018-09-09T23:03:14.021Z,16.30
2018-09-09T23:05:42.478Z,16.20
2018-09-09T23:08:10.705Z,16.20
2018-09-09T23:10:38.931Z,16.10
2018-09-09T23:13:07.189Z,16.10
2018-09-09T23:15:36.042Z,16.10
2018-09-09T23:18:04.506Z,16.00
2018-09-09T23:20:33.181Z,15.90
2018-09-09T23:23:01.394Z,15.90
2018-09-09T23:25:29.616Z,15.90
2018-09-09T23:27:58.109Z,15.80
2018-09-09T23:30:26.338Z,15.90
2018-09-09T23:32:55.025Z,15.90
2018-09-09T23:35:23.229Z,15.90
2018-09-09T23:37:52.121Z,15.90
2018-09-09T23:40:20.770Z,16.00
2018-09-09T23:42:49.233Z,15.90
2018-09-09T23:45:17.469Z,15.90
2018-09-09T23:47:45.885Z,15.80
2018-09-09T23:50:14.316Z,15.70
2018-09-09T23:52:42.767Z,15.70
2018-09-09T23:55:10.994Z,15.70
2018-09-09T23:57:39.222Z,15.70
